createdAt,value
2022-11-20T00:00:32.139Z,57.65
2022-11-20T00:02:58.845Z,29.10
2022-11-20T00:05:25.696Z,24.13
2022-11-20T00:07:52.423Z,21.95
2022-11-20T00:10:19.115Z,20.48
2022-11-20T00:12:45.845Z,18.10
2022-11-20T00:15:12.538Z,15.55
2022-11-20T00:17:39.231Z,17.90
2022-11-20T00:20:06.441Z,16.17
2022-11-20T00:22:33.152Z,17.23
2022-11-20T00:24:59.885Z,18.73
2022-11-20T00:27:26.588Z,17.30
2022-11-20T00:29:53.305Z,17.00
2022-11-20T00:32:20.013Z,19.02
2022-11-20T00:34:46.657Z,17.80
2022-11-20T00:37:13.343Z,19.45
2022-11-20T00:39:40.019Z,19.08
2022-11-20T00:42:06.754Z,19.30
2022-11-20T00:44:33.448Z,46.30
2022-11-20T00:47:00.175Z,53.47
2022-11-20T00:49:26.845Z,28.67
2022-11-20T00:51:53.520Z,35.15
2022-11-20T00:54:20.194Z,38.97
2022-11-20T00:56:46.879Z,31.60
2022-11-20T00:59:13.882Z,35.95
2022-11-20T01:01:40.656Z,29.58
2022-11-20T01:04:07.330Z,23.35
2022-11-20T01:06:36.588Z,19.65
2022-11-20T01:09:12.211Z,19.45
2022-11-20T01:11:42.231Z,18.35
2022-11-20T01:14:12.725Z,17.25
2022-11-20T01:16:50.813Z,16.75
2022-11-20T01:19:22.893Z,18.63
2022-11-20T01:21:52.024Z,16.63
2022-11-20T01:24:20.373Z,16.60
2022-11-20T01:26:49.564Z,16.48
2022-11-20T01:29:19.679Z,19.05
2022-11-20T01:31:46.731Z,16.85
2022-11-20T01:34:16.594Z,16.30
2022-11-20T01:36:44.031Z,17.80
2022-11-20T01:39:17.500Z,18.70
2022-11-20T01:42:11.792Z,19.23
2022-11-20T01:44:51.780Z,17.65
2022-11-20T01:47:24.241Z,15.77
2022-11-20T01:49:58.863Z,15.45
2022-11-20T01:52:35.532Z,18.08
2022-11-20T01:55:10.173Z,17.65
2022-11-20T01:57:37.579Z,17.75
2022-11-20T02:00:09.273Z,16.90
2022-11-20T02:02:37.347Z,16.73
2022-11-20T02:05:23.325Z,18.67
2022-11-20T02:07:51.497Z,20.45
2022-11-20T02:10:18.334Z,17.05
2022-11-20T02:13:04.413Z,15.93
2022-11-20T02:15:31.424Z,17.30
2022-11-20T02:17:58.354Z,15.27
2022-11-20T02:20:25.165Z,18.95
2022-11-20T02:23:09.610Z,17.02
2022-11-20T02:25:37.742Z,16.70
2022-11-20T02:28:05.873Z,18.67
2022-11-20T02:30:32.725Z,17.75
2022-11-20T02:32:59.685Z,17.33
2022-11-20T02:35:26.304Z,18.35
2022-11-20T02:37:57.232Z,17.52
2022-11-20T02:40:24.555Z,18.33
2022-11-20T02:42:55.689Z,16.00
2022-11-20T02:45:23.700Z,18.27
2022-11-20T02:47:50.917Z,18.75
2022-11-20T02:50:18.104Z,17.30
2022-11-20T02:52:45.802Z,14.10
2022-11-20T02:55:12.521Z,14.82
2022-11-20T02:57:39.164Z,18.88
2022-11-20T03:00:07.740Z,18.00
2022-11-20T03:02:34.849Z,16.45
2022-11-20T03:05:01.612Z,15.90
2022-11-20T03:07:28.460Z,19.40
2022-11-20T03:09:55.297Z,16.73
2022-11-20T03:12:21.950Z,17.40
2022-11-20T03:14:52.849Z,18.27
2022-11-20T03:17:19.920Z,17.23
2022-11-20T03:19:46.647Z,15.70
2022-11-20T03:22:13.347Z,17.15
2022-11-20T03:24:40.054Z,17.25
2022-11-20T03:27:06.851Z,15.73
2022-11-20T03:29:33.535Z,16.77
2022-11-20T03:32:00.193Z,14.50
2022-11-20T03:34:26.907Z,16.17
2022-11-20T03:36:53.592Z,17.40
2022-11-20T03:39:20.522Z,15.20
2022-11-20T03:41:47.410Z,15.63
2022-11-20T03:44:14.126Z,15.88
2022-11-20T03:46:40.891Z,18.40
2022-11-20T03:49:07.647Z,18.88
2022-11-20T03:51:36.575Z,16.55
2022-11-20T03:54:06.189Z,19.75
2022-11-20T03:56:35.173Z,18.05
2022-11-20T03:59:02.235Z,16.55
2022-11-20T04:01:34.648Z,16.23
2022-11-20T04:04:01.949Z,19.10
2022-11-20T04:06:35.417Z,18.00
2022-11-20T04:09:02.319Z,17.05
2022-11-20T04:11:31.647Z,19.08
2022-11-20T04:14:05.042Z,16.90
2022-11-20T04:16:34.472Z,17.00
2022-11-20T04:19:04.350Z,15.20
2022-11-20T04:21:31.766Z,16.35
2022-11-20T04:23:58.968Z,14.95
2022-11-20T04:26:28.474Z,17.17
2022-11-20T04:28:55.655Z,16.70
2022-11-20T04:31:25.249Z,15.43
2022-11-20T04:33:52.560Z,16.40
2022-11-20T04:36:21.824Z,18.50
2022-11-20T04:38:57.235Z,16.45
2022-11-20T04:41:29.565Z,18.30
2022-11-20T04:44:00.637Z,16.63
2022-11-20T04:46:28.804Z,15.40
2022-11-20T04:48:55.609Z,17.35
2022-11-20T04:51:22.973Z,17.63
2022-11-20T04:53:49.722Z,17.00
2022-11-20T04:56:17.226Z,17.08
2022-11-20T04:58:44.118Z,14.88
2022-11-20T05:01:25.159Z,15.82
2022-11-20T05:03:52.523Z,16.85
2022-11-20T05:06:22.905Z,17.40
2022-11-20T05:08:49.931Z,16.92
2022-11-20T05:11:21.531Z,15.98
2022-11-20T05:13:48.898Z,16.25
2022-11-20T05:16:23.969Z,15.02
2022-11-20T05:18:52.112Z,15.45
2022-11-20T05:21:19.321Z,16.15
2022-11-20T05:23:46.723Z,15.60
2022-11-20T05:26:17.625Z,16.58
2022-11-20T05:28:44.958Z,15.50
2022-11-20T05:31:20.746Z,15.50
2022-11-20T05:33:50.450Z,14.38
2022-11-20T05:36:17.506Z,15.63
2022-11-20T05:38:47.064Z,18.10
2022-11-20T05:41:19.222Z,17.75
2022-11-20T05:43:47.785Z,20.65
2022-11-20T05:46:15.985Z,16.38
2022-11-20T05:48:44.298Z,15.10
2022-11-20T05:51:13.761Z,15.73
2022-11-20T05:53:45.288Z,16.67
2022-11-20T05:56:17.953Z,19.13
2022-11-20T05:58:46.616Z,17.15
2022-11-20T06:01:22.473Z,17.58
2022-11-20T06:03:51.449Z,16.55
2022-11-20T06:06:19.623Z,19.13
2022-11-20T06:08:46.628Z,15.07
2022-11-20T06:11:14.626Z,15.23
2022-11-20T06:13:42.749Z,16.42
2022-11-20T06:16:10.789Z,15.27
2022-11-20T06:18:37.679Z,17.10
2022-11-20T06:21:07.733Z,18.58
2022-11-20T06:23:35.624Z,15.60
2022-11-20T06:26:04.226Z,17.17
2022-11-20T06:28:31.203Z,15.73
2022-11-20T06:30:58.326Z,16.42
2022-11-20T06:33:25.504Z,15.40
2022-11-20T06:35:58.489Z,22.80
2022-11-20T06:38:27.775Z,15.57
2022-11-20T06:40:54.910Z,16.48
2022-11-20T06:43:21.906Z,16.27
2022-11-20T06:45:57.039Z,17.73
2022-11-20T06:48:24.942Z,16.27
2022-11-20T06:50:51.655Z,18.65
2022-11-20T06:53:18.507Z,16.88
2022-11-20T06:55:47.634Z,16.17
2022-11-20T06:58:16.556Z,18.45
2022-11-20T07:00:43.862Z,16.75
2022-11-20T07:03:12.087Z,15.93
2022-11-20T07:05:39.504Z,18.50
2022-11-20T07:08:06.398Z,18.30
2022-11-20T07:10:33.692Z,16.05
2022-11-20T07:13:00.646Z,16.58
2022-11-20T07:15:27.593Z,17.55
2022-11-20T07:17:54.288Z,19.35
2022-11-20T07:20:21.024Z,17.33
2022-11-20T07:22:47.704Z,17.38
2022-11-20T07:25:14.507Z,19.08
2022-11-20T07:27:41.311Z,17.63
2022-11-20T07:30:08.357Z,16.42
2022-11-20T07:32:35.048Z,16.58
2022-11-20T07:35:01.738Z,17.75
2022-11-20T07:37:28.495Z,18.33
2022-11-20T07:39:55.178Z,18.17
2022-11-20T07:42:21.914Z,20.30
2022-11-20T07:44:48.578Z,17.85
2022-11-20T07:47:15.268Z,19.85
2022-11-20T07:49:41.936Z,19.33
2022-11-20T07:52:08.628Z,22.15
2022-11-20T07:54:35.433Z,19.85
2022-11-20T07:57:02.102Z,20.80
2022-11-20T07:59:28.766Z,16.83
2022-11-20T08:01:56.219Z,20.77
2022-11-20T08:04:24.366Z,23.48
2022-11-20T08:06:52.764Z,21.52
2022-11-20T08:09:19.651Z,19.85
2022-11-20T08:12:05.194Z,21.70
2022-11-20T08:14:31.940Z,25.55
2022-11-20T08:16:58.797Z,27.73
2022-11-20T08:19:25.481Z,25.88
2022-11-20T08:21:52.175Z,26.85
2022-11-20T08:24:18.886Z,24.02
2022-11-20T08:26:45.662Z,23.73
2022-11-20T08:29:12.483Z,24.30
2022-11-20T08:31:39.317Z,24.02
2022-11-20T08:34:09.246Z,24.02
2022-11-20T08:39:04.158Z,24.23
2022-11-20T08:41:34.002Z,24.33
2022-11-20T08:44:03.097Z,26.40
2022-11-20T08:46:34.914Z,23.23
2022-11-20T08:49:01.694Z,24.63
2022-11-20T08:51:28.515Z,23.88
2022-11-20T08:53:55.257Z,24.73
2022-11-20T08:56:21.968Z,24.52
2022-11-20T08:59:17.991Z,26.30
2022-11-20T09:01:35.978Z,24.80
2022-11-20T09:04:04.679Z,21.65
2022-11-20T09:06:31.413Z,24.15
2022-11-20T09:09:02.088Z,25.15
2022-11-20T09:11:31.770Z,28.50
2022-11-20T09:13:58.590Z,23.35
2022-11-20T09:16:25.242Z,24.60
2022-11-20T09:19:07.312Z,24.20
2022-11-20T09:21:38.724Z,25.35
2022-11-20T09:24:06.271Z,24.58
2022-11-20T09:26:33.076Z,24.98
2022-11-20T09:28:59.782Z,25.48
2022-11-20T09:31:29.868Z,23.83
2022-11-20T09:33:56.594Z,31.33
2022-11-20T09:36:23.340Z,23.95
2022-11-20T09:38:50.072Z,24.60
2022-11-20T09:41:31.532Z,24.85
2022-11-20T09:44:28.585Z,25.58
2022-11-20T09:47:09.128Z,22.77
2022-11-20T09:49:53.611Z,23.90
2022-11-20T09:52:46.682Z,29.85
2022-11-20T09:55:15.409Z,23.80
2022-11-20T09:57:46.894Z,23.33
2022-11-20T10:00:15.478Z,27.23
2022-11-20T10:02:45.940Z,31.08
2022-11-20T10:05:23.804Z,27.30
2022-11-20T10:08:01.103Z,27.25
2022-11-20T10:10:43.920Z,26.92
2022-11-20T10:13:41.235Z,28.02
2022-11-20T10:16:20.227Z,28.85
2022-11-20T10:19:14.960Z,24.60
2022-11-20T10:21:47.840Z,25.83
2022-11-20T10:24:33.142Z,27.75
2022-11-20T10:27:07.362Z,25.33
2022-11-20T10:29:39.097Z,26.23
2022-11-20T10:32:12.816Z,24.02
2022-11-20T10:34:51.928Z,31.95
2022-11-20T10:37:27.228Z,26.40
2022-11-20T10:40:05.665Z,30.67
2022-11-20T10:42:52.105Z,30.65
2022-11-20T10:45:30.400Z,27.40
2022-11-20T10:48:15.588Z,25.95
2022-11-20T10:50:58.504Z,28.98
2022-11-20T10:53:51.276Z,28.38
2022-11-20T10:56:36.570Z,29.50
2022-11-20T10:59:20.595Z,30.15
2022-11-20T11:01:47.465Z,30.13
2022-11-20T11:04:40.566Z,29.98
2022-11-20T11:07:18.968Z,30.48
2022-11-20T11:09:50.561Z,30.02
2022-11-20T11:12:17.594Z,30.50
2022-11-20T11:14:49.725Z,31.45
2022-11-20T11:17:27.965Z,30.58
2022-11-20T11:20:18.077Z,31.67
2022-11-20T11:22:50.369Z,29.85
2022-11-20T11:25:58.615Z,37.33
2022-11-20T11:28:27.157Z,29.52
2022-11-20T11:30:54.240Z,28.55
2022-11-20T11:33:32.108Z,30.73
2022-11-20T11:36:05.577Z,31.05
2022-11-20T11:38:37.199Z,34.08
2022-11-20T11:41:05.637Z,31.35
2022-11-20T11:43:56.099Z,30.63
2022-11-20T11:49:04.714Z,34.72
2022-11-20T11:51:40.226Z,33.25
2022-11-20T11:54:30.964Z,35.72
2022-11-20T11:57:04.443Z,33.10
2022-11-20T12:00:14.726Z,33.78
2022-11-20T12:02:49.363Z,32.75
2022-11-20T12:05:27.030Z,33.60
2022-11-20T12:08:12.815Z,33.10
2022-11-20T12:10:46.194Z,34.50
2022-11-20T12:13:35.837Z,35.70
2022-11-20T12:16:04.249Z,31.75
2022-11-20T12:18:31.664Z,37.25
2022-11-20T12:21:10.985Z,35.72
2022-11-20T12:23:51.135Z,35.90
2022-11-20T12:26:20.824Z,37.22
2022-11-20T12:28:59.864Z,33.75
2022-11-20T12:31:41.692Z,36.13
2022-11-20T12:34:22.655Z,37.08
2022-11-20T12:37:02.482Z,38.97
2022-11-20T12:39:35.002Z,35.95
2022-11-20T12:42:20.124Z,34.58
2022-11-20T12:45:11.774Z,36.78
2022-11-20T12:48:04.028Z,36.58
2022-11-20T12:54:00.071Z,39.92
2022-11-20T12:56:45.905Z,32.55
2022-11-20T12:59:40.242Z,37.67
2022-11-20T13:02:28.132Z,40.63
2022-11-20T13:05:22.674Z,36.38
2022-11-20T13:07:52.525Z,37.67
2022-11-20T13:10:30.743Z,45.83
2022-11-20T13:13:19.073Z,40.88
2022-11-20T13:15:51.413Z,47.00
2022-11-20T13:18:18.877Z,42.40
2022-11-20T13:20:46.681Z,41.55
2022-11-20T13:23:25.847Z,40.13
2022-11-20T13:26:03.470Z,37.55
2022-11-20T13:28:31.164Z,34.67
2022-11-20T13:30:59.668Z,39.55
2022-11-20T13:33:37.761Z,41.97
2022-11-20T13:36:06.342Z,39.80
2022-11-20T13:38:49.237Z,38.05
2022-11-20T13:41:32.281Z,38.30
2022-11-20T13:44:26.834Z,35.58
2022-11-20T13:46:53.613Z,40.72
2022-11-20T13:49:34.014Z,37.53
2022-11-20T13:54:56.848Z,44.42
2022-11-20T13:57:48.994Z,42.92
2022-11-20T14:00:26.659Z,43.28
2022-11-20T14:03:18.389Z,43.78
2022-11-20T14:05:56.778Z,38.50
2022-11-20T14:08:47.227Z,41.97
2022-11-20T14:14:01.729Z,40.92
2022-11-20T14:16:31.429Z,42.47
2022-11-20T14:19:18.128Z,38.58
2022-11-20T14:21:44.869Z,43.15
2022-11-20T14:24:13.338Z,41.53
2022-11-20T14:26:44.739Z,39.30
2022-11-20T14:29:20.153Z,42.95
2022-11-20T14:31:54.197Z,39.63
2022-11-20T14:34:33.499Z,40.60
2022-11-20T14:37:02.979Z,41.95
2022-11-20T14:39:36.165Z,46.20
2022-11-20T14:42:04.496Z,46.40
2022-11-20T14:44:34.928Z,42.20
2022-11-20T14:49:32.879Z,44.88
2022-11-20T14:52:01.410Z,43.85
2022-11-20T14:54:29.268Z,47.83
2022-11-20T14:56:58.205Z,40.35
2022-11-20T14:59:26.486Z,43.25
2022-11-20T15:02:03.769Z,42.67
2022-11-20T15:04:30.525Z,43.63
2022-11-20T15:07:01.357Z,43.72
2022-11-20T15:09:28.048Z,40.25
2022-11-20T15:12:03.322Z,36.85
2022-11-20T15:14:32.007Z,34.38
2022-11-20T15:16:59.263Z,38.00
2022-11-20T15:19:27.654Z,34.25
2022-11-20T15:21:54.444Z,39.03
2022-11-20T15:24:21.656Z,38.25
2022-11-20T15:26:49.768Z,34.25
2022-11-20T15:29:21.842Z,35.92
2022-11-20T15:31:48.587Z,36.55
2022-11-20T15:34:16.624Z,38.03
2022-11-20T15:36:44.665Z,37.88
2022-11-20T15:39:12.441Z,34.08
2022-11-20T15:41:39.949Z,35.13
2022-11-20T15:44:07.296Z,34.35
2022-11-20T15:46:40.842Z,36.58
2022-11-20T15:49:13.518Z,34.70
2022-11-20T15:51:44.480Z,32.28
2022-11-20T15:54:23.006Z,35.15
2022-11-20T15:56:53.236Z,33.80
2022-11-20T15:59:19.966Z,32.08
2022-11-20T16:01:46.789Z,32.47
2022-11-20T16:04:16.262Z,31.90
2022-11-20T16:06:43.318Z,48.00
2022-11-20T16:09:10.575Z,38.83
2022-11-20T16:11:37.614Z,32.60
2022-11-20T16:14:23.565Z,32.40
2022-11-20T16:16:50.411Z,29.85
2022-11-20T16:19:18.308Z,33.47
2022-11-20T16:21:46.079Z,28.17
2022-11-20T16:24:14.748Z,28.65
2022-11-20T16:26:42.089Z,27.67
2022-11-20T16:29:09.352Z,34.67
2022-11-20T16:31:36.250Z,29.55
2022-11-20T16:34:11.542Z,31.73
2022-11-20T16:36:43.257Z,29.08
2022-11-20T16:39:10.337Z,28.52
2022-11-20T16:41:37.373Z,28.00
2022-11-20T16:44:08.606Z,28.52
2022-11-20T16:46:35.531Z,30.25
2022-11-20T16:49:13.837Z,31.08
2022-11-20T16:51:40.990Z,33.20
2022-11-20T16:54:09.588Z,42.13
2022-11-20T16:56:36.513Z,45.00
2022-11-20T16:59:04.259Z,31.13
2022-11-20T17:01:31.813Z,29.85
2022-11-20T17:04:04.035Z,32.67
2022-11-20T17:06:40.389Z,37.67
2022-11-20T17:09:10.404Z,39.58
2022-11-20T17:11:37.857Z,31.88
2022-11-20T17:14:07.296Z,36.33
2022-11-20T17:16:35.553Z,34.40
2022-11-20T17:19:04.079Z,30.02
2022-11-20T17:21:32.443Z,32.55
2022-11-20T17:24:03.783Z,31.02
2022-11-20T17:26:31.133Z,31.55
2022-11-20T17:29:24.218Z,28.45
2022-11-20T17:31:50.974Z,32.00
2022-11-20T17:34:17.996Z,34.17
2022-11-20T17:36:46.537Z,30.83
2022-11-20T17:39:17.316Z,32.53
2022-11-20T17:41:44.448Z,32.28
2022-11-20T17:44:12.545Z,31.02
2022-11-20T17:46:39.845Z,36.30
2022-11-20T17:49:07.445Z,46.13
2022-11-20T17:51:35.235Z,37.13
2022-11-20T17:54:04.711Z,42.35
2022-11-20T17:56:51.665Z,33.47
2022-11-20T17:59:19.029Z,30.13
2022-11-20T18:01:45.974Z,34.70
2022-11-20T18:04:13.437Z,37.67
2022-11-20T18:06:40.868Z,31.40
2022-11-20T18:09:08.078Z,33.47
2022-11-20T18:11:37.804Z,34.30
2022-11-20T18:14:26.535Z,32.38
2022-11-20T18:17:13.654Z,37.10
2022-11-20T18:19:55.647Z,33.97
2022-11-20T18:22:29.768Z,37.88
2022-11-20T18:24:56.502Z,47.05
2022-11-20T18:27:23.904Z,37.72
2022-11-20T18:29:52.198Z,35.72
2022-11-20T18:32:20.419Z,30.67
2022-11-20T18:34:47.330Z,30.60
2022-11-20T18:37:16.387Z,32.40
2022-11-20T18:39:43.716Z,34.83
2022-11-20T18:42:33.479Z,37.95
2022-11-20T18:45:01.465Z,41.05
2022-11-20T18:47:31.970Z,41.40
2022-11-20T18:52:46.820Z,32.13
2022-11-20T18:55:13.965Z,37.53
2022-11-20T18:57:41.094Z,34.25
2022-11-20T19:00:09.855Z,36.00
2022-11-20T19:02:41.565Z,36.75
2022-11-20T19:05:14.573Z,36.22
2022-11-20T19:07:42.480Z,37.58
2022-11-20T19:10:09.547Z,35.63
2022-11-20T19:12:37.540Z,33.22
2022-11-20T19:15:04.922Z,36.92
2022-11-20T19:17:33.623Z,38.78
2022-11-20T19:20:00.426Z,40.30
2022-11-20T19:22:27.143Z,33.00
2022-11-20T19:24:53.823Z,34.45
2022-11-20T19:27:20.645Z,32.60
2022-11-20T19:29:47.334Z,31.45
2022-11-20T19:32:14.025Z,32.63
2022-11-20T19:34:41.567Z,32.40
2022-11-20T19:37:08.276Z,32.30
2022-11-20T19:39:36.745Z,30.05
2022-11-20T19:42:03.723Z,33.88
2022-11-20T19:44:30.488Z,32.78
2022-11-20T19:46:58.567Z,34.40
2022-11-20T19:49:25.702Z,31.55
2022-11-20T19:51:52.671Z,33.95
2022-11-20T19:54:19.405Z,34.05
2022-11-20T19:56:47.241Z,35.00
2022-11-20T19:59:15.148Z,33.65
2022-11-20T20:01:42.338Z,31.52
2022-11-20T20:04:09.174Z,28.98
2022-11-20T20:06:38.723Z,30.15
2022-11-20T20:09:08.375Z,31.77
2022-11-20T20:11:36.137Z,32.70
2022-11-20T20:14:04.409Z,33.25
2022-11-20T20:16:31.148Z,33.83
2022-11-20T20:19:01.237Z,32.08
2022-11-20T20:21:30.416Z,30.38
2022-11-20T20:23:57.819Z,32.70
2022-11-20T20:26:26.177Z,35.47
2022-11-20T20:28:53.003Z,32.03
2022-11-20T20:31:22.948Z,35.92
2022-11-20T20:33:49.873Z,34.80
2022-11-20T20:36:17.877Z,31.08
2022-11-20T20:38:45.983Z,34.97
2022-11-20T20:41:19.854Z,37.83
2022-11-20T20:44:05.357Z,32.22
2022-11-20T20:46:32.391Z,35.42
2022-11-20T20:48:59.733Z,36.70
2022-11-20T20:51:26.440Z,37.88
2022-11-20T20:53:53.923Z,34.17
2022-11-20T20:56:21.281Z,29.50
2022-11-20T20:58:47.990Z,28.40
2022-11-20T21:01:17.308Z,30.63
2022-11-20T21:03:44.300Z,34.35
2022-11-20T21:06:11.889Z,32.33
2022-11-20T21:08:41.168Z,33.15
2022-11-20T21:11:16.993Z,34.05
2022-11-20T21:13:45.387Z,31.40
2022-11-20T21:16:13.953Z,32.85
2022-11-20T21:18:41.107Z,36.58
2022-11-20T21:21:30.405Z,31.80
2022-11-20T21:23:57.279Z,35.30
2022-11-20T21:26:24.151Z,32.72
2022-11-20T21:28:50.956Z,33.10
2022-11-20T21:31:23.508Z,32.33
2022-11-20T21:33:51.642Z,30.52
2022-11-20T21:36:20.226Z,31.15
2022-11-20T21:38:47.616Z,36.22
2022-11-20T21:41:15.051Z,38.78
2022-11-20T21:43:44.756Z,38.22
2022-11-20T21:46:16.583Z,37.47
2022-11-20T21:48:45.005Z,34.55
2022-11-20T21:51:19.897Z,37.85
2022-11-20T21:53:47.904Z,33.83
2022-11-20T21:56:20.274Z,33.92
2022-11-20T21:58:48.044Z,34.42
2022-11-20T22:01:23.378Z,34.55
2022-11-20T22:03:56.741Z,35.47
2022-11-20T22:06:25.321Z,35.00
2022-11-20T22:08:52.075Z,35.10
2022-11-20T22:11:20.827Z,37.28
2022-11-20T22:14:06.697Z,35.78
2022-11-20T22:16:37.253Z,34.40
2022-11-20T22:19:04.814Z,36.67
2022-11-20T22:21:32.235Z,38.15
2022-11-20T22:23:59.576Z,31.45
2022-11-20T22:26:28.781Z,39.20
2022-11-20T22:28:58.192Z,34.25
2022-11-20T22:31:28.052Z,37.15
2022-11-20T22:33:55.323Z,48.58
2022-11-20T22:36:24.450Z,46.72
2022-11-20T22:38:51.441Z,43.67
2022-11-20T22:41:20.770Z,40.88
2022-11-20T22:43:47.709Z,34.78
2022-11-20T22:46:19.420Z,36.03
2022-11-20T22:48:52.247Z,38.17
2022-11-20T22:51:21.005Z,40.40
2022-11-20T22:53:47.988Z,35.00
2022-11-20T22:56:16.030Z,35.58
2022-11-20T22:58:45.348Z,37.72
2022-11-20T23:01:14.806Z,38.72
2022-11-20T23:03:43.438Z,38.97
2022-11-20T23:06:10.714Z,34.88
2022-11-20T23:08:38.532Z,33.08
2022-11-20T23:11:07.696Z,35.95
2022-11-20T23:13:35.449Z,34.58
2022-11-20T23:16:04.912Z,33.92
2022-11-20T23:18:32.169Z,37.95
2022-11-20T23:21:10.537Z,33.15
2022-11-20T23:23:37.572Z,36.22
2022-11-20T23:26:06.384Z,38.58
2022-11-20T23:28:33.339Z,37.53
2022-11-20T23:31:01.024Z,38.92
2022-11-20T23:33:27.796Z,37.80
2022-11-20T23:35:54.873Z,38.33
2022-11-20T23:38:21.651Z,37.65
2022-11-20T23:40:52.283Z,39.92
2022-11-20T23:43:20.967Z,38.63
2022-11-20T23:45:53.061Z,39.55
2022-11-20T23:48:21.264Z,38.67
2022-11-20T23:50:48.244Z,41.83
2022-11-20T23:53:16.204Z,44.15
2022-11-20T23:55:47.585Z,40.83
2022-11-20T23:58:14.696Z,40.33
